• Join FlightAware (Why Join?)
  • Login
  • US Flag 
10:01PM EDT


 

Airport Tracker/Info


-or-


 

Live Flight TrackerFlight Track Log ✈ N3137 ✈ 28-Apr-2013 ✈ NZGM / GMN - E45

Flight Track Log - Related Links

Times and Time Zones

All times are in EDT time to prevent confusion due to time zone crossing. See the N3137 flight status page for this flight to view local times or setup timezone preferences in your user account.

Time Position Orientation Groundspeed Altitude Reporting Facility
EDT Latitude Longitude Course Direction KTS MPH feet Rate Location/Type
08:55PM 34.4858 -118.6200 344° North 309 356 14,300  Level Los Angeles Center
08:56PM 34.5733 -118.6511 344° North 327 376 18,200 3,180 Climbing Los Angeles Center
08:57PM 34.6658 -118.6789 346° North 348 400 20,900 2,340 Climbing Los Angeles Center
08:58PM 34.7628 -118.7153 343° North 368 423 23,000 2,340 Climbing Los Angeles Center
08:59PM 34.8861 -118.7642 342° North 387 445 25,800 2,580 Climbing Los Angeles Center
09:00PM 34.9839 -118.8325 330° Northwest 402 463 28,300 2,280 Climbing Los Angeles Center
09:01PM 35.0897 -118.8928 335° Northwest 420 483 30,500 1,800 Climbing Los Angeles Center
09:02PM 35.2061 -118.9322 345° North 433 498 32,100 1,380 Climbing Los Angeles Center
09:03PM 35.3228 -118.9728 344° North 438 504 33,400 840 Climbing Los Angeles Center
09:04PM 35.4656 -119.0278 343° North 446 513 34,000 240 Climbing Los Angeles Center
09:05PM 35.5825 -119.0803 340° North 448 516 34,000  Level Los Angeles Center
09:06PM 35.6719 -119.1281 337° Northwest 449 517 34,000  Level Oakland Center
09:07PM 35.7828 -119.1914 335° Northwest 445 512 34,000  Level Oakland Center
09:08PM 35.8986 -119.2486 338° Northwest 448 516 34,000  Level Oakland Center
09:09PM 36.0161 -119.3061 338° Northwest 454 522 34,000  Level Oakland Center
09:10PM 36.1331 -119.3592 340° North 450 518 34,000  Level Oakland Center
09:11PM 36.2517 -119.4128 340° North 454 522 34,000  Level Oakland Center
09:12PM 36.3703 -119.4603 342° North 451 519 34,000  Level Oakland Center
09:13PM 36.4892 -119.5100 341° North 451 519 34,000  Level Oakland Center
09:14PM 36.6047 -119.5667 339° North 446 513 34,000  Level Oakland Center
09:15PM 36.7236 -119.6203 340° North 454 522 34,000  Level Oakland Center
09:16PM 36.8397 -119.6722 340° North 447 514 34,000  Level Oakland Center
09:17PM 36.9786 -119.7469 337° Northwest 450 518 34,000  Level Oakland Center
09:18PM 37.0942 -119.8042 338° Northwest 445 512 34,000 -1,560 Level Oakland Center
09:19PM 37.2039 -119.8564 339° North 433 498 30,900 -2,580 Descending Oakland Center
09:20PM 37.3175 -119.9150 338° Northwest 440 506 28,800 -2,760 Descending Oakland Center
09:21PM 37.4283 -119.9694 339° North 430 495 25,300 -3,840 Descending Oakland Center
09:22PM 37.5331 -120.0225 338° Northwest 407 468 21,000 -4,260 Descending Oakland Center
09:24PM 37.6569 -120.0752 341° North  Level FlightAware Approximate
09:31PM 37.8500 -120.1667 North  Level FlightAware Approximate
09:32PM 37.8617 -120.1786 North  Level Estimated
09:33PM 37.8617 -120.1786 North  Level Estimated
09:34PM 37.8617 -120.1786 North  Level Estimated
09:35PM 37.8617 -120.1786 North  Level Estimated
09:36PM 37.8617 -120.1786 North  Level Estimated
09:37PM 37.8617 -120.1786 North  Level Estimated
09:38PM 37.8617 -120.1786 North  Level Estimated
09:39PM 37.8617 -120.1786 North  Level Estimated
09:40PM 37.8617 -120.1786 North  Level Estimated
09:41PM 37.8617 -120.1786 North  Level Estimated
09:42PM 37.8617 -120.1786 North  Level Estimated
09:43PM 37.8617 -120.1786 North  Level Estimated
09:44PM 37.8617 -120.1786 North  Level Estimated
09:45PM 37.8617 -120.1786 North  Level Estimated